sensor_id;sensor_type;location;lat;lon;timestamp;P1;durP1;ratioP1;P2;durP2;ratioP2
21101;SDS011;10709;49.006;12.100;2023-04-03T00:00:14;4.13;;;3.27;;
21101;SDS011;10709;49.006;12.100;2023-04-03T00:02:40;3.97;;;3.23;;
21101;SDS011;10709;49.006;12.100;2023-04-03T00:05:07;4.17;;;3.13;;
21101;SDS011;10709;49.006;12.100;2023-04-03T00:07:34;4.07;;;3.10;;
21101;SDS011;10709;49.006;12.100;2023-04-03T00:10:01;5.60;;;3.13;;
21101;SDS011;10709;49.006;12.100;2023-04-03T00:12:27;4.20;;;2.77;;
21101;SDS011;10709;49.006;12.100;2023-04-03T00:14:54;4.70;;;3.10;;
21101;SDS011;10709;49.006;12.100;2023-04-03T00:17:21;3.80;;;2.90;;
21101;SDS011;10709;49.006;12.100;2023-04-03T00:19:47;4.37;;;3.07;;
21101;SDS011;10709;49.006;12.100;2023-04-03T00:22:14;5.00;;;3.27;;
21101;SDS011;10709;49.006;12.100;2023-04-03T00:24:41;4.63;;;3.20;;
21101;SDS011;10709;49.006;12.100;2023-04-03T00:27:08;4.63;;;3.33;;
21101;SDS011;10709;49.006;12.100;2023-04-03T00:29:34;4.37;;;3.30;;
21101;SDS011;10709;49.006;12.100;2023-04-03T00:32:01;4.40;;;3.20;;
21101;SDS011;10709;49.006;12.100;2023-04-03T00:34:27;4.27;;;3.07;;
21101;SDS011;10709;49.006;12.100;2023-04-03T00:36:54;5.37;;;3.00;;
21101;SDS011;10709;49.006;12.100;2023-04-03T00:39:21;5.40;;;3.00;;
21101;SDS011;10709;49.006;12.100;2023-04-03T00:41:47;4.60;;;3.23;;
21101;SDS011;10709;49.006;12.100;2023-04-03T00:46:47;5.10;;;3.30;;
21101;SDS011;10709;49.006;12.100;2023-04-03T00:49:14;4.90;;;2.90;;
21101;SDS011;10709;49.006;12.100;2023-04-03T00:51:40;4.00;;;3.00;;
21101;SDS011;10709;49.006;12.100;2023-04-03T00:54:07;3.73;;;2.97;;
21101;SDS011;10709;49.006;12.100;2023-04-03T00:56:34;3.50;;;3.00;;
21101;SDS011;10709;49.006;12.100;2023-04-03T00:59:07;5.53;;;3.33;;
21101;SDS011;10709;49.006;12.100;2023-04-03T01:01:38;4.00;;;3.20;;
21101;SDS011;10709;49.006;12.100;2023-04-03T01:04:05;6.60;;;3.30;;
21101;SDS011;10709;49.006;12.100;2023-04-03T01:06:34;5.60;;;3.20;;
21101;SDS011;10709;49.006;12.100;2023-04-03T01:09:03;5.03;;;3.30;;
21101;SDS011;10709;49.006;12.100;2023-04-03T01:11:32;5.67;;;3.23;;
21101;SDS011;10709;49.006;12.100;2023-04-03T01:13:58;4.57;;;3.20;;
21101;SDS011;10709;49.006;12.100;2023-04-03T01:16:26;6.03;;;3.47;;
21101;SDS011;10709;49.006;12.100;2023-04-03T01:18:53;5.23;;;3.10;;
21101;SDS011;10709;49.006;12.100;2023-04-03T01:24:23;4.33;;;3.00;;
21101;SDS011;10709;49.006;12.100;2023-04-03T01:26:55;5.20;;;3.30;;
21101;SDS011;10709;49.006;12.100;2023-04-03T01:29:21;4.90;;;3.43;;
21101;SDS011;10709;49.006;12.100;2023-04-03T01:31:53;4.23;;;3.10;;
21101;SDS011;10709;49.006;12.100;2023-04-03T01:34:22;6.03;;;3.57;;
21101;SDS011;10709;49.006;12.100;2023-04-03T01:36:50;3.77;;;3.00;;
21101;SDS011;10709;49.006;12.100;2023-04-03T01:39:17;5.57;;;3.30;;
21101;SDS011;10709;49.006;12.100;2023-04-03T01:41:44;3.90;;;3.20;;
21101;SDS011;10709;49.006;12.100;2023-04-03T01:44:11;3.57;;;3.00;;
21101;SDS011;10709;49.006;12.100;2023-04-03T01:46:38;4.60;;;3.30;;
21101;SDS011;10709;49.006;12.100;2023-04-03T01:49:04;5.30;;;3.80;;
21101;SDS011;10709;49.006;12.100;2023-04-03T01:51:31;4.33;;;3.50;;
21101;SDS011;10709;49.006;12.100;2023-04-03T01:53:57;5.40;;;3.47;;
21101;SDS011;10709;49.006;12.100;2023-04-03T01:56:24;4.07;;;3.10;;
21101;SDS011;10709;49.006;12.100;2023-04-03T01:58:51;3.73;;;3.17;;
21101;SDS011;10709;49.006;12.100;2023-04-03T02:01:18;4.00;;;3.07;;
21101;SDS011;10709;49.006;12.100;2023-04-03T02:03:44;4.00;;;3.07;;
21101;SDS011;10709;49.006;12.100;2023-04-03T02:06:11;7.50;;;3.67;;
21101;SDS011;10709;49.006;12.100;2023-04-03T02:08:38;4.53;;;2.90;;
21101;SDS011;10709;49.006;12.100;2023-04-03T02:11:04;5.03;;;3.20;;
21101;SDS011;10709;49.006;12.100;2023-04-03T02:13:31;4.30;;;3.37;;
21101;SDS011;10709;49.006;12.100;2023-04-03T02:15:57;4.57;;;3.17;;
21101;SDS011;10709;49.006;12.100;2023-04-03T02:18:25;3.83;;;3.37;;
21101;SDS011;10709;49.006;12.100;2023-04-03T02:20:51;4.37;;;3.50;;
21101;SDS011;10709;49.006;12.100;2023-04-03T02:23:18;4.13;;;3.40;;
21101;SDS011;10709;49.006;12.100;2023-04-03T02:25:44;3.90;;;3.40;;
21101;SDS011;10709;49.006;12.100;2023-04-03T02:28:11;4.60;;;3.20;;
21101;SDS011;10709;49.006;12.100;2023-04-03T02:30:38;5.57;;;3.30;;
21101;SDS011;10709;49.006;12.100;2023-04-03T02:33:05;4.53;;;3.20;;
21101;SDS011;10709;49.006;12.100;2023-04-03T02:35:31;5.07;;;3.53;;
21101;SDS011;10709;49.006;12.100;2023-04-03T02:37:58;4.20;;;3.27;;
21101;SDS011;10709;49.006;12.100;2023-04-03T02:40:24;4.20;;;3.30;;
21101;SDS011;10709;49.006;12.100;2023-04-03T02:42:51;4.90;;;3.67;;
21101;SDS011;10709;49.006;12.100;2023-04-03T02:45:17;4.23;;;3.60;;
21101;SDS011;10709;49.006;12.100;2023-04-03T02:47:44;5.13;;;3.43;;
21101;SDS011;10709;49.006;12.100;2023-04-03T02:50:10;4.63;;;3.37;;
21101;SDS011;10709;49.006;12.100;2023-04-03T02:52:37;5.20;;;3.50;;
21101;SDS011;10709;49.006;12.100;2023-04-03T02:55:03;5.33;;;3.43;;
21101;SDS011;10709;49.006;12.100;2023-04-03T02:57:32;4.43;;;3.50;;
21101;SDS011;10709;49.006;12.100;2023-04-03T02:59:58;4.43;;;3.40;;
21101;SDS011;10709;49.006;12.100;2023-04-03T03:02:24;5.87;;;4.00;;
21101;SDS011;10709;49.006;12.100;2023-04-03T03:04:51;4.60;;;3.50;;
21101;SDS011;10709;49.006;12.100;2023-04-03T03:07:18;4.67;;;3.60;;
21101;SDS011;10709;49.006;12.100;2023-04-03T03:09:44;4.50;;;3.40;;
21101;SDS011;10709;49.006;12.100;2023-04-03T03:12:11;4.60;;;3.60;;
21101;SDS011;10709;49.006;12.100;2023-04-03T03:14:37;4.37;;;3.47;;
21101;SDS011;10709;49.006;12.100;2023-04-03T03:17:04;5.37;;;3.47;;
21101;SDS011;10709;49.006;12.100;2023-04-03T03:19:30;4.57;;;3.50;;
21101;SDS011;10709;49.006;12.100;2023-04-03T03:21:57;5.40;;;3.50;;
21101;SDS011;10709;49.006;12.100;2023-04-03T03:24:23;4.13;;;3.30;;
21101;SDS011;10709;49.006;12.100;2023-04-03T03:26:50;4.13;;;3.10;;
21101;SDS011;10709;49.006;12.100;2023-04-03T03:29:16;5.60;;;3.77;;
21101;SDS011;10709;49.006;12.100;2023-04-03T03:31:42;5.63;;;3.40;;
21101;SDS011;10709;49.006;12.100;2023-04-03T03:34:09;4.47;;;3.67;;
21101;SDS011;10709;49.006;12.100;2023-04-03T03:36:36;5.13;;;3.30;;
21101;SDS011;10709;49.006;12.100;2023-04-03T03:39:02;5.20;;;3.70;;
21101;SDS011;10709;49.006;12.100;2023-04-03T03:41:29;5.37;;;3.40;;
21101;SDS011;10709;49.006;12.100;2023-04-03T03:43:55;4.97;;;3.40;;
21101;SDS011;10709;49.006;12.100;2023-04-03T03:46:22;5.33;;;3.77;;
21101;SDS011;10709;49.006;12.100;2023-04-03T03:48:48;6.90;;;4.03;;
21101;SDS011;10709;49.006;12.100;2023-04-03T03:51:15;4.97;;;3.33;;
21101;SDS011;10709;49.006;12.100;2023-04-03T03:53:41;5.27;;;3.90;;
21101;SDS011;10709;49.006;12.100;2023-04-03T03:56:08;6.17;;;3.70;;
21101;SDS011;10709;49.006;12.100;2023-04-03T03:58:35;5.50;;;3.90;;
21101;SDS011;10709;49.006;12.100;2023-04-03T04:01:02;4.67;;;3.50;;
21101;SDS011;10709;49.006;12.100;2023-04-03T04:03:31;6.00;;;4.03;;
21101;SDS011;10709;49.006;12.100;2023-04-03T04:05:58;5.67;;;3.90;;
21101;SDS011;10709;49.006;12.100;2023-04-03T04:08:25;5.10;;;3.80;;
21101;SDS011;10709;49.006;12.100;2023-04-03T04:10:51;4.07;;;3.63;;
21101;SDS011;10709;49.006;12.100;2023-04-03T04:13:18;4.43;;;3.67;;
21101;SDS011;10709;49.006;12.100;2023-04-03T04:15:44;4.90;;;3.60;;
21101;SDS011;10709;49.006;12.100;2023-04-03T04:18:11;5.30;;;4.33;;
21101;SDS011;10709;49.006;12.100;2023-04-03T04:20:38;5.00;;;4.10;;
21101;SDS011;10709;49.006;12.100;2023-04-03T04:23:04;6.10;;;3.90;;
21101;SDS011;10709;49.006;12.100;2023-04-03T04:25:31;5.33;;;3.40;;
21101;SDS011;10709;49.006;12.100;2023-04-03T04:27:57;6.50;;;3.73;;
21101;SDS011;10709;49.006;12.100;2023-04-03T04:30:23;6.10;;;3.80;;
21101;SDS011;10709;49.006;12.100;2023-04-03T04:32:50;5.27;;;3.60;;
21101;SDS011;10709;49.006;12.100;2023-04-03T04:35:17;4.93;;;3.50;;
21101;SDS011;10709;49.006;12.100;2023-04-03T04:37:43;4.63;;;3.43;;
21101;SDS011;10709;49.006;12.100;2023-04-03T04:40:10;5.17;;;3.50;;
21101;SDS011;10709;49.006;12.100;2023-04-03T04:42:37;5.20;;;3.47;;
21101;SDS011;10709;49.006;12.100;2023-04-03T04:45:04;6.17;;;3.60;;
21101;SDS011;10709;49.006;12.100;2023-04-03T04:47:31;5.90;;;3.70;;
21101;SDS011;10709;49.006;12.100;2023-04-03T04:49:57;5.53;;;3.70;;
21101;SDS011;10709;49.006;12.100;2023-04-03T04:52:24;4.53;;;3.50;;
21101;SDS011;10709;49.006;12.100;2023-04-03T04:54:51;4.87;;;3.53;;
21101;SDS011;10709;49.006;12.100;2023-04-03T04:57:17;4.27;;;3.50;;
21101;SDS011;10709;49.006;12.100;2023-04-03T04:59:44;4.37;;;3.47;;
21101;SDS011;10709;49.006;12.100;2023-04-03T05:02:10;5.47;;;3.40;;
21101;SDS011;10709;49.006;12.100;2023-04-03T05:04:37;5.30;;;3.83;;
21101;SDS011;10709;49.006;12.100;2023-04-03T05:07:03;6.67;;;3.60;;
21101;SDS011;10709;49.006;12.100;2023-04-03T05:09:30;4.67;;;3.73;;
21101;SDS011;10709;49.006;12.100;2023-04-03T05:11:56;4.47;;;3.60;;
21101;SDS011;10709;49.006;12.100;2023-04-03T05:14:23;6.13;;;4.00;;
21101;SDS011;10709;49.006;12.100;2023-04-03T05:16:49;6.27;;;3.27;;
21101;SDS011;10709;49.006;12.100;2023-04-03T05:19:20;5.33;;;3.53;;
21101;SDS011;10709;49.006;12.100;2023-04-03T05:21:46;4.83;;;3.60;;
21101;SDS011;10709;49.006;12.100;2023-04-03T05:24:14;4.87;;;3.77;;
21101;SDS011;10709;49.006;12.100;2023-04-03T05:26:41;5.23;;;3.60;;
21101;SDS011;10709;49.006;12.100;2023-04-03T05:29:08;6.33;;;3.80;;
21101;SDS011;10709;49.006;12.100;2023-04-03T05:31:35;6.83;;;3.93;;
21101;SDS011;10709;49.006;12.100;2023-04-03T05:34:02;4.93;;;3.43;;
21101;SDS011;10709;49.006;12.100;2023-04-03T05:36:28;6.20;;;3.67;;
21101;SDS011;10709;49.006;12.100;2023-04-03T05:38:55;5.27;;;3.97;;
21101;SDS011;10709;49.006;12.100;2023-04-03T05:41:22;5.83;;;3.97;;
21101;SDS011;10709;49.006;12.100;2023-04-03T05:43:49;6.33;;;4.03;;
21101;SDS011;10709;49.006;12.100;2023-04-03T05:46:16;5.90;;;3.70;;
21101;SDS011;10709;49.006;12.100;2023-04-03T05:48:45;7.27;;;4.20;;
21101;SDS011;10709;49.006;12.100;2023-04-03T05:51:20;7.87;;;4.37;;
21101;SDS011;10709;49.006;12.100;2023-04-03T05:53:49;5.90;;;4.37;;
21101;SDS011;10709;49.006;12.100;2023-04-03T05:56:22;6.57;;;4.10;;
21101;SDS011;10709;49.006;12.100;2023-04-03T05:58:48;5.13;;;3.97;;
21101;SDS011;10709;49.006;12.100;2023-04-03T06:01:15;7.03;;;4.33;;
21101;SDS011;10709;49.006;12.100;2023-04-03T06:03:42;7.07;;;4.20;;
21101;SDS011;10709;49.006;12.100;2023-04-03T06:06:12;7.63;;;4.27;;
21101;SDS011;10709;49.006;12.100;2023-04-03T06:08:40;7.53;;;4.60;;
21101;SDS011;10709;49.006;12.100;2023-04-03T06:11:06;7.80;;;4.77;;
21101;SDS011;10709;49.006;12.100;2023-04-03T06:13:34;7.10;;;4.40;;
21101;SDS011;10709;49.006;12.100;2023-04-03T06:16:01;8.50;;;5.00;;
21101;SDS011;10709;49.006;12.100;2023-04-03T06:18:29;5.93;;;4.80;;
21101;SDS011;10709;49.006;12.100;2023-04-03T06:20:56;8.07;;;4.70;;
21101;SDS011;10709;49.006;12.100;2023-04-03T06:23:22;9.03;;;4.60;;
21101;SDS011;10709;49.006;12.100;2023-04-03T06:25:49;6.00;;;4.90;;
21101;SDS011;10709;49.006;12.100;2023-04-03T06:28:15;7.93;;;4.77;;
21101;SDS011;10709;49.006;12.100;2023-04-03T06:30:41;9.53;;;4.93;;
21101;SDS011;10709;49.006;12.100;2023-04-03T06:33:08;7.50;;;5.10;;
21101;SDS011;10709;49.006;12.100;2023-04-03T06:35:34;7.23;;;4.70;;
21101;SDS011;10709;49.006;12.100;2023-04-03T06:38:01;6.47;;;4.73;;
21101;SDS011;10709;49.006;12.100;2023-04-03T06:40:30;8.97;;;5.10;;
21101;SDS011;10709;49.006;12.100;2023-04-03T06:42:56;11.13;;;5.00;;
21101;SDS011;10709;49.006;12.100;2023-04-03T06:45:23;7.63;;;4.80;;
21101;SDS011;10709;49.006;12.100;2023-04-03T06:47:51;6.63;;;4.77;;
21101;SDS011;10709;49.006;12.100;2023-04-03T06:50:18;9.27;;;4.90;;
21101;SDS011;10709;49.006;12.100;2023-04-03T06:52:44;8.07;;;4.60;;
21101;SDS011;10709;49.006;12.100;2023-04-03T06:55:11;7.77;;;4.83;;
21101;SDS011;10709;49.006;12.100;2023-04-03T06:57:37;7.90;;;4.73;;
21101;SDS011;10709;49.006;12.100;2023-04-03T07:00:05;9.20;;;5.53;;
21101;SDS011;10709;49.006;12.100;2023-04-03T07:02:33;6.37;;;4.67;;
21101;SDS011;10709;49.006;12.100;2023-04-03T07:04:59;8.60;;;4.70;;
21101;SDS011;10709;49.006;12.100;2023-04-03T07:07:26;7.93;;;4.63;;
21101;SDS011;10709;49.006;12.100;2023-04-03T07:09:52;7.70;;;4.80;;
21101;SDS011;10709;49.006;12.100;2023-04-03T07:12:19;7.43;;;4.73;;
21101;SDS011;10709;49.006;12.100;2023-04-03T07:14:46;7.90;;;4.97;;
21101;SDS011;10709;49.006;12.100;2023-04-03T07:17:13;7.80;;;4.93;;
21101;SDS011;10709;49.006;12.100;2023-04-03T07:19:39;6.43;;;4.50;;
21101;SDS011;10709;49.006;12.100;2023-04-03T07:22:06;6.10;;;4.20;;
21101;SDS011;10709;49.006;12.100;2023-04-03T07:24:32;7.33;;;4.20;;
21101;SDS011;10709;49.006;12.100;2023-04-03T07:26:59;8.20;;;4.10;;
21101;SDS011;10709;49.006;12.100;2023-04-03T07:29:27;8.93;;;3.90;;
21101;SDS011;10709;49.006;12.100;2023-04-03T07:31:53;6.20;;;4.00;;
21101;SDS011;10709;49.006;12.100;2023-04-03T07:34:22;6.30;;;4.43;;
21101;SDS011;10709;49.006;12.100;2023-04-03T07:36:48;8.40;;;4.13;;
21101;SDS011;10709;49.006;12.100;2023-04-03T07:39:15;7.07;;;4.10;;
21101;SDS011;10709;49.006;12.100;2023-04-03T07:41:41;7.97;;;3.80;;
21101;SDS011;10709;49.006;12.100;2023-04-03T07:44:08;6.90;;;3.70;;
21101;SDS011;10709;49.006;12.100;2023-04-03T07:46:36;6.03;;;3.57;;
21101;SDS011;10709;49.006;12.100;2023-04-03T07:49:03;5.57;;;3.30;;
21101;SDS011;10709;49.006;12.100;2023-04-03T07:51:29;4.87;;;3.10;;
21101;SDS011;10709;49.006;12.100;2023-04-03T07:53:56;6.67;;;3.40;;
21101;SDS011;10709;49.006;12.100;2023-04-03T07:56:23;4.80;;;3.10;;
21101;SDS011;10709;49.006;12.100;2023-04-03T07:58:51;4.00;;;3.00;;
21101;SDS011;10709;49.006;12.100;2023-04-03T08:01:17;6.33;;;3.30;;
21101;SDS011;10709;49.006;12.100;2023-04-03T08:03:44;7.17;;;3.00;;
21101;SDS011;10709;49.006;12.100;2023-04-03T08:06:10;3.57;;;2.53;;
21101;SDS011;10709;49.006;12.100;2023-04-03T08:08:41;5.17;;;2.70;;
21101;SDS011;10709;49.006;12.100;2023-04-03T08:11:08;4.57;;;2.83;;
21101;SDS011;10709;49.006;12.100;2023-04-03T08:13:36;5.27;;;2.93;;
21101;SDS011;10709;49.006;12.100;2023-04-03T08:16:13;4.50;;;3.03;;
21101;SDS011;10709;49.006;12.100;2023-04-03T08:18:44;4.70;;;2.70;;
21101;SDS011;10709;49.006;12.100;2023-04-03T08:21:11;4.43;;;2.90;;
21101;SDS011;10709;49.006;12.100;2023-04-03T08:23:38;8.30;;;2.80;;
21101;SDS011;10709;49.006;12.100;2023-04-03T08:26:08;4.10;;;2.80;;
21101;SDS011;10709;49.006;12.100;2023-04-03T08:28:36;5.27;;;2.70;;
21101;SDS011;10709;49.006;12.100;2023-04-03T08:31:07;4.47;;;2.87;;
21101;SDS011;10709;49.006;12.100;2023-04-03T08:33:37;5.73;;;2.63;;
21101;SDS011;10709;49.006;12.100;2023-04-03T08:36:06;8.33;;;2.60;;
21101;SDS011;10709;49.006;12.100;2023-04-03T08:38:34;4.57;;;2.60;;
21101;SDS011;10709;49.006;12.100;2023-04-03T08:46:53;4.83;;;2.63;;
21101;SDS011;10709;49.006;12.100;2023-04-03T08:52:15;6.67;;;2.37;;
21101;SDS011;10709;49.006;12.100;2023-04-03T08:54:52;7.70;;;2.77;;
21101;SDS011;10709;49.006;12.100;2023-04-03T08:57:26;5.63;;;2.70;;
21101;SDS011;10709;49.006;12.100;2023-04-03T08:59:57;3.47;;;2.00;;
21101;SDS011;10709;49.006;12.100;2023-04-03T09:02:33;4.33;;;1.80;;
21101;SDS011;10709;49.006;12.100;2023-04-03T09:05:16;5.20;;;2.17;;
21101;SDS011;10709;49.006;12.100;2023-04-03T09:08:18;3.83;;;1.50;;
21101;SDS011;10709;49.006;12.100;2023-04-03T09:10:47;6.33;;;1.90;;
21101;SDS011;10709;49.006;12.100;2023-04-03T09:13:33;3.37;;;1.80;;
21101;SDS011;10709;49.006;12.100;2023-04-03T09:16:27;3.07;;;1.80;;
21101;SDS011;10709;49.006;12.100;2023-04-03T09:18:57;6.43;;;1.70;;
21101;SDS011;10709;49.006;12.100;2023-04-03T09:21:36;5.13;;;2.20;;
21101;SDS011;10709;49.006;12.100;2023-04-03T09:24:05;4.10;;;1.60;;
21101;SDS011;10709;49.006;12.100;2023-04-03T09:26:36;5.33;;;1.77;;
21101;SDS011;10709;49.006;12.100;2023-04-03T09:29:07;3.03;;;1.50;;
21101;SDS011;10709;49.006;12.100;2023-04-03T09:31:41;4.13;;;1.47;;
21101;SDS011;10709;49.006;12.100;2023-04-03T09:34:13;2.90;;;1.30;;
21101;SDS011;10709;49.006;12.100;2023-04-03T09:36:59;4.47;;;1.60;;
21101;SDS011;10709;49.006;12.100;2023-04-03T09:39:33;4.17;;;1.50;;
21101;SDS011;10709;49.006;12.100;2023-04-03T09:44:53;2.93;;;1.40;;
21101;SDS011;10709;49.006;12.100;2023-04-03T09:47:27;3.00;;;1.30;;
21101;SDS011;10709;49.006;12.100;2023-04-03T09:52:53;4.90;;;1.30;;
21101;SDS011;10709;49.006;12.100;2023-04-03T09:55:22;2.70;;;1.70;;
21101;SDS011;10709;49.006;12.100;2023-04-03T09:58:00;3.07;;;1.27;;
21101;SDS011;10709;49.006;12.100;2023-04-03T10:00:30;6.30;;;1.83;;
21101;SDS011;10709;49.006;12.100;2023-04-03T10:03:00;3.13;;;1.70;;
21101;SDS011;10709;49.006;12.100;2023-04-03T10:05:34;3.10;;;1.60;;
21101;SDS011;10709;49.006;12.100;2023-04-03T10:08:19;5.13;;;1.27;;
21101;SDS011;10709;49.006;12.100;2023-04-03T10:11:05;3.37;;;1.77;;
21101;SDS011;10709;49.006;12.100;2023-04-03T10:13:34;3.73;;;1.50;;
21101;SDS011;10709;49.006;12.100;2023-04-03T10:16:16;2.70;;;1.40;;
21101;SDS011;10709;49.006;12.100;2023-04-03T10:21:37;4.07;;;1.37;;
21101;SDS011;10709;49.006;12.100;2023-04-03T10:24:19;3.17;;;1.50;;
21101;SDS011;10709;49.006;12.100;2023-04-03T10:29:33;2.93;;;1.40;;
21101;SDS011;10709;49.006;12.100;2023-04-03T10:40:55;4.30;;;1.40;;
21101;SDS011;10709;49.006;12.100;2023-04-03T10:43:44;3.40;;;1.17;;
21101;SDS011;10709;49.006;12.100;2023-04-03T10:46:36;3.90;;;1.30;;
21101;SDS011;10709;49.006;12.100;2023-04-03T10:49:22;3.57;;;1.40;;
21101;SDS011;10709;49.006;12.100;2023-04-03T10:52:02;2.70;;;1.30;;
21101;SDS011;10709;49.006;12.100;2023-04-03T10:57:33;3.17;;;1.30;;
21101;SDS011;10709;49.006;12.100;2023-04-03T11:00:02;4.10;;;1.20;;
21101;SDS011;10709;49.006;12.100;2023-04-03T11:02:41;2.97;;;1.50;;
21101;SDS011;10709;49.006;12.100;2023-04-03T11:05:53;4.67;;;1.40;;
21101;SDS011;10709;49.006;12.100;2023-04-03T11:08:09;2.90;;;1.43;;
21101;SDS011;10709;49.006;12.100;2023-04-03T11:11:06;2.93;;;1.23;;
21101;SDS011;10709;49.006;12.100;2023-04-03T11:13:38;2.47;;;1.27;;
21101;SDS011;10709;49.006;12.100;2023-04-03T11:16:12;2.70;;;1.20;;
21101;SDS011;10709;49.006;12.100;2023-04-03T11:18:49;2.90;;;1.40;;
21101;SDS011;10709;49.006;12.100;2023-04-03T11:23:51;3.37;;;1.30;;
21101;SDS011;10709;49.006;12.100;2023-04-03T11:26:21;2.43;;;1.40;;
21101;SDS011;10709;49.006;12.100;2023-04-03T11:28:52;2.57;;;1.50;;
21101;SDS011;10709;49.006;12.100;2023-04-03T11:31:33;2.47;;;1.40;;
21101;SDS011;10709;49.006;12.100;2023-04-03T11:34:14;2.40;;;1.33;;
21101;SDS011;10709;49.006;12.100;2023-04-03T11:37:05;2.63;;;1.50;;
21101;SDS011;10709;49.006;12.100;2023-04-03T11:39:40;3.13;;;1.50;;
21101;SDS011;10709;49.006;12.100;2023-04-03T11:47:53;2.80;;;1.20;;
21101;SDS011;10709;49.006;12.100;2023-04-03T11:58:12;3.07;;;1.47;;
21101;SDS011;10709;49.006;12.100;2023-04-03T12:05:52;3.43;;;1.57;;
21101;SDS011;10709;49.006;12.100;2023-04-03T12:13:35;3.03;;;1.20;;
21101;SDS011;10709;49.006;12.100;2023-04-03T12:16:03;4.10;;;1.10;;
21101;SDS011;10709;49.006;12.100;2023-04-03T12:21:04;2.67;;;1.33;;
21101;SDS011;10709;49.006;12.100;2023-04-03T12:23:34;3.47;;;1.40;;
21101;SDS011;10709;49.006;12.100;2023-04-03T12:26:21;2.43;;;1.33;;
21101;SDS011;10709;49.006;12.100;2023-04-03T12:28:57;3.93;;;1.53;;
21101;SDS011;10709;49.006;12.100;2023-04-03T12:31:25;2.63;;;1.50;;
21101;SDS011;10709;49.006;12.100;2023-04-03T12:34:12;3.03;;;1.20;;
21101;SDS011;10709;49.006;12.100;2023-04-03T12:36:50;2.63;;;1.23;;
21101;SDS011;10709;49.006;12.100;2023-04-03T12:42:24;3.70;;;1.57;;
21101;SDS011;10709;49.006;12.100;2023-04-03T12:45:10;3.27;;;1.50;;
21101;SDS011;10709;49.006;12.100;2023-04-03T12:47:48;2.83;;;1.43;;
21101;SDS011;10709;49.006;12.100;2023-04-03T12:50:24;3.63;;;1.60;;
21101;SDS011;10709;49.006;12.100;2023-04-03T12:52:59;3.27;;;1.70;;
21101;SDS011;10709;49.006;12.100;2023-04-03T12:55:30;4.57;;;1.83;;
21101;SDS011;10709;49.006;12.100;2023-04-03T12:57:56;2.77;;;1.50;;
21101;SDS011;10709;49.006;12.100;2023-04-03T13:03:03;2.50;;;1.53;;
21101;SDS011;10709;49.006;12.100;2023-04-03T13:05:32;5.63;;;1.53;;
21101;SDS011;10709;49.006;12.100;2023-04-03T13:08:07;2.97;;;1.40;;
21101;SDS011;10709;49.006;12.100;2023-04-03T13:10:47;2.23;;;1.40;;
21101;SDS011;10709;49.006;12.100;2023-04-03T13:13:18;4.40;;;1.50;;
21101;SDS011;10709;49.006;12.100;2023-04-03T13:15:46;2.77;;;1.30;;
21101;SDS011;10709;49.006;12.100;2023-04-03T13:18:25;2.97;;;1.47;;
21101;SDS011;10709;49.006;12.100;2023-04-03T13:20:59;3.63;;;1.70;;
21101;SDS011;10709;49.006;12.100;2023-04-03T13:23:33;2.40;;;1.17;;
21101;SDS011;10709;49.006;12.100;2023-04-03T13:26:02;2.60;;;1.50;;
21101;SDS011;10709;49.006;12.100;2023-04-03T13:28:31;5.43;;;1.50;;
21101;SDS011;10709;49.006;12.100;2023-04-03T13:31:07;3.90;;;1.43;;
21101;SDS011;10709;49.006;12.100;2023-04-03T13:33:43;4.03;;;1.70;;
21101;SDS011;10709;49.006;12.100;2023-04-03T13:36:46;3.67;;;1.30;;
21101;SDS011;10709;49.006;12.100;2023-04-03T13:41:40;2.20;;;1.30;;
21101;SDS011;10709;49.006;12.100;2023-04-03T13:44:16;2.73;;;1.33;;
21101;SDS011;10709;49.006;12.100;2023-04-03T13:46:53;1.67;;;1.20;;
21101;SDS011;10709;49.006;12.100;2023-04-03T13:49:29;5.43;;;1.47;;
21101;SDS011;10709;49.006;12.100;2023-04-03T13:52:03;5.10;;;1.40;;
21101;SDS011;10709;49.006;12.100;2023-04-03T13:54:53;2.17;;;1.20;;
21101;SDS011;10709;49.006;12.100;2023-04-03T13:57:22;2.37;;;1.67;;
21101;SDS011;10709;49.006;12.100;2023-04-03T13:59:49;2.67;;;1.30;;
21101;SDS011;10709;49.006;12.100;2023-04-03T14:02:18;3.63;;;1.20;;
21101;SDS011;10709;49.006;12.100;2023-04-03T14:04:59;4.47;;;1.30;;
21101;SDS011;10709;49.006;12.100;2023-04-03T14:07:28;4.27;;;1.20;;
21101;SDS011;10709;49.006;12.100;2023-04-03T14:09:57;1.87;;;1.33;;
21101;SDS011;10709;49.006;12.100;2023-04-03T14:12:30;3.53;;;1.30;;
21101;SDS011;10709;49.006;12.100;2023-04-03T14:15:10;2.97;;;1.37;;
21101;SDS011;10709;49.006;12.100;2023-04-03T14:17:54;2.77;;;1.40;;
21101;SDS011;10709;49.006;12.100;2023-04-03T14:20:23;2.40;;;1.50;;
21101;SDS011;10709;49.006;12.100;2023-04-03T14:22:52;2.83;;;1.50;;
21101;SDS011;10709;49.006;12.100;2023-04-03T14:25:20;2.37;;;1.20;;
21101;SDS011;10709;49.006;12.100;2023-04-03T14:27:50;3.17;;;1.40;;
21101;SDS011;10709;49.006;12.100;2023-04-03T14:32:51;2.73;;;1.33;;
21101;SDS011;10709;49.006;12.100;2023-04-03T14:35:18;1.80;;;1.30;;
21101;SDS011;10709;49.006;12.100;2023-04-03T14:37:45;3.73;;;1.40;;
21101;SDS011;10709;49.006;12.100;2023-04-03T14:40:13;2.90;;;1.47;;
21101;SDS011;10709;49.006;12.100;2023-04-03T14:42:48;5.13;;;1.40;;
21101;SDS011;10709;49.006;12.100;2023-04-03T14:45:15;2.90;;;1.33;;
21101;SDS011;10709;49.006;12.100;2023-04-03T14:47:47;3.03;;;1.30;;
21101;SDS011;10709;49.006;12.100;2023-04-03T14:50:20;2.10;;;1.30;;
21101;SDS011;10709;49.006;12.100;2023-04-03T14:52:50;4.17;;;1.33;;
21101;SDS011;10709;49.006;12.100;2023-04-03T14:55:20;3.20;;;1.40;;
21101;SDS011;10709;49.006;12.100;2023-04-03T14:57:48;3.40;;;1.50;;
21101;SDS011;10709;49.006;12.100;2023-04-03T15:00:16;2.63;;;1.60;;
21101;SDS011;10709;49.006;12.100;2023-04-03T15:02:44;3.77;;;1.50;;
21101;SDS011;10709;49.006;12.100;2023-04-03T15:05:12;3.27;;;1.60;;
21101;SDS011;10709;49.006;12.100;2023-04-03T15:07:41;3.80;;;1.50;;
21101;SDS011;10709;49.006;12.100;2023-04-03T15:12:44;3.30;;;1.60;;
21101;SDS011;10709;49.006;12.100;2023-04-03T15:15:11;2.53;;;1.40;;
21101;SDS011;10709;49.006;12.100;2023-04-03T15:17:38;3.13;;;1.50;;
21101;SDS011;10709;49.006;12.100;2023-04-03T15:20:12;3.90;;;1.60;;
21101;SDS011;10709;49.006;12.100;2023-04-03T15:22:44;3.57;;;1.80;;
21101;SDS011;10709;49.006;12.100;2023-04-03T15:25:10;3.23;;;1.67;;
21101;SDS011;10709;49.006;12.100;2023-04-03T15:27:38;2.97;;;1.43;;
21101;SDS011;10709;49.006;12.100;2023-04-03T15:30:07;4.30;;;1.60;;
21101;SDS011;10709;49.006;12.100;2023-04-03T15:32:37;4.30;;;1.87;;
21101;SDS011;10709;49.006;12.100;2023-04-03T15:35:03;5.53;;;1.60;;
21101;SDS011;10709;49.006;12.100;2023-04-03T15:37:31;3.63;;;1.70;;
21101;SDS011;10709;49.006;12.100;2023-04-03T15:39:57;2.87;;;1.30;;
21101;SDS011;10709;49.006;12.100;2023-04-03T15:42:24;4.03;;;1.70;;
21101;SDS011;10709;49.006;12.100;2023-04-03T15:44:50;4.17;;;1.67;;
21101;SDS011;10709;49.006;12.100;2023-04-03T15:47:17;3.97;;;1.53;;
21101;SDS011;10709;49.006;12.100;2023-04-03T15:49:43;2.73;;;1.63;;
21101;SDS011;10709;49.006;12.100;2023-04-03T15:52:10;3.53;;;1.80;;
21101;SDS011;10709;49.006;12.100;2023-04-03T15:54:36;2.53;;;1.47;;
21101;SDS011;10709;49.006;12.100;2023-04-03T15:57:03;3.67;;;1.60;;
21101;SDS011;10709;49.006;12.100;2023-04-03T15:59:29;4.90;;;1.70;;
21101;SDS011;10709;49.006;12.100;2023-04-03T16:01:58;4.33;;;1.73;;
21101;SDS011;10709;49.006;12.100;2023-04-03T16:04:27;3.20;;;1.77;;
21101;SDS011;10709;49.006;12.100;2023-04-03T16:06:53;5.93;;;1.57;;